sensor_id;sensor_type;location;lat;lon;timestamp;temperature;humidity
61255;DHT22;47128;47.530;8.584;2023-04-03T00:02:04;8.80;99.90
61255;DHT22;47128;47.530;8.584;2023-04-03T00:04:30;8.80;99.90
61255;DHT22;47128;47.530;8.584;2023-04-03T00:06:56;8.70;99.90
61255;DHT22;47128;47.530;8.584;2023-04-03T00:09:21;8.60;99.90
61255;DHT22;47128;47.530;8.584;2023-04-03T00:11:46;8.70;99.90
61255;DHT22;47128;47.530;8.584;2023-04-03T00:14:12;8.40;99.90
61255;DHT22;47128;47.530;8.584;2023-04-03T00:16:37;8.70;99.90
61255;DHT22;47128;47.530;8.584;2023-04-03T00:19:03;8.50;99.90
61255;DHT22;47128;47.530;8.584;2023-04-03T00:21:28;8.50;99.90
61255;DHT22;47128;47.530;8.584;2023-04-03T00:23:54;8.50;99.90
61255;DHT22;47128;47.530;8.584;2023-04-03T00:26:19;8.60;99.90
61255;DHT22;47128;47.530;8.584;2023-04-03T00:28:46;8.50;99.90
61255;DHT22;47128;47.530;8.584;2023-04-03T00:31:13;8.50;99.90
61255;DHT22;47128;47.530;8.584;2023-04-03T00:33:39;8.30;99.90
61255;DHT22;47128;47.530;8.584;2023-04-03T00:36:05;8.20;99.90
61255;DHT22;47128;47.530;8.584;2023-04-03T00:38:31;8.30;99.90
61255;DHT22;47128;47.530;8.584;2023-04-03T00:40:57;8.20;99.90
61255;DHT22;47128;47.530;8.584;2023-04-03T00:43:23;8.10;99.90
61255;DHT22;47128;47.530;8.584;2023-04-03T00:45:50;8.00;99.90
61255;DHT22;47128;47.530;8.584;2023-04-03T00:48:17;7.80;99.90
61255;DHT22;47128;47.530;8.584;2023-04-03T00:50:43;7.80;99.90
61255;DHT22;47128;47.530;8.584;2023-04-03T00:53:11;7.70;99.90
61255;DHT22;47128;47.530;8.584;2023-04-03T00:55:37;7.70;99.90
61255;DHT22;47128;47.530;8.584;2023-04-03T00:58:03;7.40;99.90
61255;DHT22;47128;47.530;8.584;2023-04-03T01:00:28;7.40;99.90
61255;DHT22;47128;47.530;8.584;2023-04-03T01:02:54;7.30;99.90
61255;DHT22;47128;47.530;8.584;2023-04-03T01:05:20;7.30;99.90
61255;DHT22;47128;47.530;8.584;2023-04-03T01:07:45;7.30;99.90
61255;DHT22;47128;47.530;8.584;2023-04-03T01:10:12;7.30;99.90
61255;DHT22;47128;47.530;8.584;2023-04-03T01:12:40;7.30;99.90
61255;DHT22;47128;47.530;8.584;2023-04-03T01:15:10;7.20;99.90
61255;DHT22;47128;47.530;8.584;2023-04-03T01:17:38;7.10;99.90
61255;DHT22;47128;47.530;8.584;2023-04-03T01:23:12;7.00;99.90
61255;DHT22;47128;47.530;8.584;2023-04-03T01:25:40;7.00;99.90
61255;DHT22;47128;47.530;8.584;2023-04-03T01:28:09;7.10;99.90
61255;DHT22;47128;47.530;8.584;2023-04-03T01:30:36;7.10;99.90
61255;DHT22;47128;47.530;8.584;2023-04-03T01:33:04;7.10;99.90
61255;DHT22;47128;47.530;8.584;2023-04-03T01:35:29;6.80;99.90
61255;DHT22;47128;47.530;8.584;2023-04-03T01:37:55;6.90;99.90
61255;DHT22;47128;47.530;8.584;2023-04-03T01:40:21;6.90;99.90
61255;DHT22;47128;47.530;8.584;2023-04-03T01:42:47;6.80;99.90
61255;DHT22;47128;47.530;8.584;2023-04-03T01:45:12;6.70;99.90
61255;DHT22;47128;47.530;8.584;2023-04-03T01:47:37;6.80;99.90
61255;DHT22;47128;47.530;8.584;2023-04-03T01:50:03;6.80;99.90
61255;DHT22;47128;47.530;8.584;2023-04-03T01:52:29;6.80;99.90
61255;DHT22;47128;47.530;8.584;2023-04-03T01:54:55;6.70;99.90
61255;DHT22;47128;47.530;8.584;2023-04-03T01:57:20;6.70;99.90
61255;DHT22;47128;47.530;8.584;2023-04-03T01:59:46;6.50;99.90
61255;DHT22;47128;47.530;8.584;2023-04-03T02:04:40;6.50;99.90
61255;DHT22;47128;47.530;8.584;2023-04-03T02:07:05;6.40;99.90
61255;DHT22;47128;47.530;8.584;2023-04-03T02:09:31;6.50;99.90
61255;DHT22;47128;47.530;8.584;2023-04-03T02:11:56;6.50;99.90
61255;DHT22;47128;47.530;8.584;2023-04-03T02:14:22;6.50;99.90
61255;DHT22;47128;47.530;8.584;2023-04-03T02:16:49;6.60;99.90
61255;DHT22;47128;47.530;8.584;2023-04-03T02:19:14;6.50;99.90
61255;DHT22;47128;47.530;8.584;2023-04-03T02:21:40;6.50;99.90
61255;DHT22;47128;47.530;8.584;2023-04-03T02:24:05;6.60;99.90
61255;DHT22;47128;47.530;8.584;2023-04-03T02:26:31;6.60;99.90
61255;DHT22;47128;47.530;8.584;2023-04-03T02:28:56;6.60;99.90
61255;DHT22;47128;47.530;8.584;2023-04-03T02:31:22;6.60;99.90
61255;DHT22;47128;47.530;8.584;2023-04-03T02:33:47;6.60;99.90
61255;DHT22;47128;47.530;8.584;2023-04-03T02:36:13;6.60;99.90
61255;DHT22;47128;47.530;8.584;2023-04-03T02:38:38;6.60;99.90
61255;DHT22;47128;47.530;8.584;2023-04-03T02:41:08;6.60;99.90
61255;DHT22;47128;47.530;8.584;2023-04-03T02:43:34;6.50;99.90
61255;DHT22;47128;47.530;8.584;2023-04-03T02:46:00;6.40;99.90
61255;DHT22;47128;47.530;8.584;2023-04-03T02:48:26;6.40;99.90
61255;DHT22;47128;47.530;8.584;2023-04-03T02:50:51;6.40;99.90
61255;DHT22;47128;47.530;8.584;2023-04-03T02:53:17;6.40;99.90
61255;DHT22;47128;47.530;8.584;2023-04-03T02:55:43;6.40;99.90
61255;DHT22;47128;47.530;8.584;2023-04-03T02:58:09;6.40;99.90
61255;DHT22;47128;47.530;8.584;2023-04-03T03:00:35;6.50;99.90
61255;DHT22;47128;47.530;8.584;2023-04-03T03:03:00;6.40;99.90
61255;DHT22;47128;47.530;8.584;2023-04-03T03:05:26;6.40;99.90
61255;DHT22;47128;47.530;8.584;2023-04-03T03:07:52;6.40;99.90
61255;DHT22;47128;47.530;8.584;2023-04-03T03:10:18;6.50;99.90
61255;DHT22;47128;47.530;8.584;2023-04-03T03:12:43;6.50;99.90
61255;DHT22;47128;47.530;8.584;2023-04-03T03:15:09;6.40;99.90
61255;DHT22;47128;47.530;8.584;2023-04-03T03:17:34;6.30;99.90
61255;DHT22;47128;47.530;8.584;2023-04-03T03:20:01;6.30;99.90
61255;DHT22;47128;47.530;8.584;2023-04-03T03:22:27;6.40;99.90
61255;DHT22;47128;47.530;8.584;2023-04-03T03:24:53;6.30;99.90
61255;DHT22;47128;47.530;8.584;2023-04-03T03:27:19;6.30;99.90
61255;DHT22;47128;47.530;8.584;2023-04-03T03:29:44;6.30;99.90
61255;DHT22;47128;47.530;8.584;2023-04-03T03:32:10;6.30;99.90
61255;DHT22;47128;47.530;8.584;2023-04-03T03:34:35;6.20;99.90
61255;DHT22;47128;47.530;8.584;2023-04-03T03:37:00;6.20;99.90
61255;DHT22;47128;47.530;8.584;2023-04-03T03:39:26;6.10;99.90
61255;DHT22;47128;47.530;8.584;2023-04-03T03:41:52;6.20;99.90
61255;DHT22;47128;47.530;8.584;2023-04-03T03:44:18;6.10;99.90
61255;DHT22;47128;47.530;8.584;2023-04-03T03:46:44;6.20;99.90
61255;DHT22;47128;47.530;8.584;2023-04-03T03:49:10;6.00;99.90
61255;DHT22;47128;47.530;8.584;2023-04-03T03:51:36;6.00;99.90
61255;DHT22;47128;47.530;8.584;2023-04-03T03:54:03;6.00;99.90
61255;DHT22;47128;47.530;8.584;2023-04-03T03:56:28;5.90;99.90
61255;DHT22;47128;47.530;8.584;2023-04-03T03:58:54;5.90;99.90
61255;DHT22;47128;47.530;8.584;2023-04-03T04:01:21;5.90;99.90
61255;DHT22;47128;47.530;8.584;2023-04-03T04:03:47;6.00;99.90
61255;DHT22;47128;47.530;8.584;2023-04-03T04:06:13;5.70;99.90
61255;DHT22;47128;47.530;8.584;2023-04-03T04:08:38;5.80;99.90
61255;DHT22;47128;47.530;8.584;2023-04-03T04:11:04;5.80;99.90
61255;DHT22;47128;47.530;8.584;2023-04-03T04:13:30;5.70;99.90
61255;DHT22;47128;47.530;8.584;2023-04-03T04:18:21;5.60;99.90
61255;DHT22;47128;47.530;8.584;2023-04-03T04:20:47;5.50;99.90
61255;DHT22;47128;47.530;8.584;2023-04-03T04:23:13;5.40;99.90
61255;DHT22;47128;47.530;8.584;2023-04-03T04:25:38;5.50;99.90
61255;DHT22;47128;47.530;8.584;2023-04-03T04:28:04;5.50;99.90
61255;DHT22;47128;47.530;8.584;2023-04-03T04:30:30;5.60;99.90
61255;DHT22;47128;47.530;8.584;2023-04-03T04:32:55;5.50;99.90
61255;DHT22;47128;47.530;8.584;2023-04-03T04:35:21;5.40;99.90
61255;DHT22;47128;47.530;8.584;2023-04-03T04:37:46;5.40;99.90
61255;DHT22;47128;47.530;8.584;2023-04-03T04:40:12;5.40;99.90
61255;DHT22;47128;47.530;8.584;2023-04-03T04:42:37;5.40;99.90
61255;DHT22;47128;47.530;8.584;2023-04-03T04:45:03;5.40;99.90
61255;DHT22;47128;47.530;8.584;2023-04-03T04:47:29;5.40;99.90
61255;DHT22;47128;47.530;8.584;2023-04-03T04:49:54;5.50;99.90
61255;DHT22;47128;47.530;8.584;2023-04-03T04:52:20;5.50;99.40
61255;DHT22;47128;47.530;8.584;2023-04-03T04:54:46;5.50;99.40
61255;DHT22;47128;47.530;8.584;2023-04-03T05:00:15;5.30;99.70
61255;DHT22;47128;47.530;8.584;2023-04-03T05:02:40;5.30;99.90
61255;DHT22;47128;47.530;8.584;2023-04-03T05:05:06;5.30;99.90
61255;DHT22;47128;47.530;8.584;2023-04-03T05:07:32;5.40;99.30
61255;DHT22;47128;47.530;8.584;2023-04-03T05:09:57;5.40;99.50
61255;DHT22;47128;47.530;8.584;2023-04-03T05:12:23;5.40;99.30
61255;DHT22;47128;47.530;8.584;2023-04-03T05:14:48;5.40;98.90
61255;DHT22;47128;47.530;8.584;2023-04-03T05:17:14;5.30;98.40
61255;DHT22;47128;47.530;8.584;2023-04-03T05:19:39;5.30;97.90
61255;DHT22;47128;47.530;8.584;2023-04-03T05:22:05;5.30;98.00
61255;DHT22;47128;47.530;8.584;2023-04-03T05:24:30;5.30;97.80
61255;DHT22;47128;47.530;8.584;2023-04-03T05:26:56;5.30;97.30
61255;DHT22;47128;47.530;8.584;2023-04-03T05:29:22;5.30;96.80
61255;DHT22;47128;47.530;8.584;2023-04-03T05:34:13;5.20;96.40
61255;DHT22;47128;47.530;8.584;2023-04-03T05:36:39;5.30;96.40
61255;DHT22;47128;47.530;8.584;2023-04-03T05:39:05;5.30;96.00
61255;DHT22;47128;47.530;8.584;2023-04-03T05:41:31;5.20;96.00
61255;DHT22;47128;47.530;8.584;2023-04-03T05:43:56;5.30;96.00
61255;DHT22;47128;47.530;8.584;2023-04-03T05:55:31;5.40;95.80
61255;DHT22;47128;47.530;8.584;2023-04-03T06:01:00;5.40;94.60
61255;DHT22;47128;47.530;8.584;2023-04-03T06:06:43;5.50;94.70
61255;DHT22;47128;47.530;8.584;2023-04-03T06:12:12;5.60;94.50
61255;DHT22;47128;47.530;8.584;2023-04-03T06:17:41;5.60;93.90
61255;DHT22;47128;47.530;8.584;2023-04-03T06:20:07;5.50;93.20
61255;DHT22;47128;47.530;8.584;2023-04-03T06:22:35;5.40;92.90
61255;DHT22;47128;47.530;8.584;2023-04-03T06:25:01;5.40;93.30
61255;DHT22;47128;47.530;8.584;2023-04-03T06:27:27;5.50;94.80
61255;DHT22;47128;47.530;8.584;2023-04-03T06:29:54;5.60;93.60
61255;DHT22;47128;47.530;8.584;2023-04-03T06:35:24;5.60;94.80
61255;DHT22;47128;47.530;8.584;2023-04-03T06:47:02;5.90;94.10
61255;DHT22;47128;47.530;8.584;2023-04-03T06:49:28;6.00;93.10
61255;DHT22;47128;47.530;8.584;2023-04-03T06:51:55;6.00;93.80
61255;DHT22;47128;47.530;8.584;2023-04-03T06:54:21;5.90;92.90
61255;DHT22;47128;47.530;8.584;2023-04-03T06:56:47;6.00;93.40
61255;DHT22;47128;47.530;8.584;2023-04-03T06:59:13;6.20;91.90
61255;DHT22;47128;47.530;8.584;2023-04-03T07:01:40;6.10;92.30
61255;DHT22;47128;47.530;8.584;2023-04-03T07:04:06;6.00;91.60
61255;DHT22;47128;47.530;8.584;2023-04-03T07:06:32;5.90;91.40
61255;DHT22;47128;47.530;8.584;2023-04-03T07:08:59;6.00;91.80
61255;DHT22;47128;47.530;8.584;2023-04-03T07:11:25;6.20;91.80
61255;DHT22;47128;47.530;8.584;2023-04-03T07:13:51;6.20;92.70
61255;DHT22;47128;47.530;8.584;2023-04-03T07:16:17;6.30;91.40
61255;DHT22;47128;47.530;8.584;2023-04-03T07:18:43;6.40;91.60
61255;DHT22;47128;47.530;8.584;2023-04-03T07:21:09;6.50;91.00
61255;DHT22;47128;47.530;8.584;2023-04-03T07:23:35;6.50;91.30
61255;DHT22;47128;47.530;8.584;2023-04-03T07:26:01;6.50;91.40
61255;DHT22;47128;47.530;8.584;2023-04-03T07:28:27;6.60;91.30
61255;DHT22;47128;47.530;8.584;2023-04-03T07:31:00;6.50;90.70
61255;DHT22;47128;47.530;8.584;2023-04-03T07:33:27;6.50;90.50
61255;DHT22;47128;47.530;8.584;2023-04-03T07:35:53;6.40;90.20
61255;DHT22;47128;47.530;8.584;2023-04-03T07:38:19;6.30;90.10
61255;DHT22;47128;47.530;8.584;2023-04-03T07:40:48;6.30;89.80
61255;DHT22;47128;47.530;8.584;2023-04-03T07:43:15;6.20;90.20
61255;DHT22;47128;47.530;8.584;2023-04-03T07:45:41;6.30;90.30
61255;DHT22;47128;47.530;8.584;2023-04-03T07:51:12;6.70;90.10
61255;DHT22;47128;47.530;8.584;2023-04-03T07:53:39;6.80;90.00
61255;DHT22;47128;47.530;8.584;2023-04-03T07:59:08;6.80;87.30
61255;DHT22;47128;47.530;8.584;2023-04-03T08:04:36;6.70;88.40
61255;DHT22;47128;47.530;8.584;2023-04-03T08:07:02;6.70;88.50
61255;DHT22;47128;47.530;8.584;2023-04-03T08:09:28;6.70;87.40
61255;DHT22;47128;47.530;8.584;2023-04-03T08:11:55;6.70;88.40
61255;DHT22;47128;47.530;8.584;2023-04-03T08:17:28;6.90;87.10
61255;DHT22;47128;47.530;8.584;2023-04-03T08:19:54;7.20;87.90
61255;DHT22;47128;47.530;8.584;2023-04-03T08:22:19;7.10;87.40
61255;DHT22;47128;47.530;8.584;2023-04-03T08:24:45;7.20;86.60
61255;DHT22;47128;47.530;8.584;2023-04-03T08:33:14;7.30;88.20
61255;DHT22;47128;47.530;8.584;2023-04-03T08:35:41;7.30;88.30
61255;DHT22;47128;47.530;8.584;2023-04-03T08:38:07;7.20;86.50
61255;DHT22;47128;47.530;8.584;2023-04-03T08:46:14;7.10;86.80
61255;DHT22;47128;47.530;8.584;2023-04-03T08:48:42;7.10;87.70
61255;DHT22;47128;47.530;8.584;2023-04-03T08:51:13;7.20;87.70
61255;DHT22;47128;47.530;8.584;2023-04-03T08:54:03;7.40;87.60
61255;DHT22;47128;47.530;8.584;2023-04-03T08:56:29;7.50;87.50
61255;DHT22;47128;47.530;8.584;2023-04-03T08:58:56;7.70;86.90
61255;DHT22;47128;47.530;8.584;2023-04-03T09:01:27;7.80;87.10
61255;DHT22;47128;47.530;8.584;2023-04-03T09:03:57;7.80;86.70
61255;DHT22;47128;47.530;8.584;2023-04-03T09:15:30;7.60;85.70
61255;DHT22;47128;47.530;8.584;2023-04-03T09:18:09;7.70;87.00
61255;DHT22;47128;47.530;8.584;2023-04-03T09:25:47;7.70;87.00
61255;DHT22;47128;47.530;8.584;2023-04-03T09:28:13;7.50;86.70
61255;DHT22;47128;47.530;8.584;2023-04-03T09:39:15;7.30;86.50
61255;DHT22;47128;47.530;8.584;2023-04-03T09:47:47;8.10;84.30
61255;DHT22;47128;47.530;8.584;2023-04-03T09:52:44;8.30;84.80
61255;DHT22;47128;47.530;8.584;2023-04-03T09:55:18;8.10;85.00
61255;DHT22;47128;47.530;8.584;2023-04-03T09:57:53;7.70;85.70
61255;DHT22;47128;47.530;8.584;2023-04-03T10:06:24;7.40;86.30
61255;DHT22;47128;47.530;8.584;2023-04-03T10:18:03;7.10;87.80
61255;DHT22;47128;47.530;8.584;2023-04-03T10:20:58;7.20;89.30
61255;DHT22;47128;47.530;8.584;2023-04-03T10:23:26;7.30;88.80
61255;DHT22;47128;47.530;8.584;2023-04-03T10:26:12;7.40;89.10
61255;DHT22;47128;47.530;8.584;2023-04-03T10:29:21;7.40;88.10
61255;DHT22;47128;47.530;8.584;2023-04-03T10:34:52;8.00;87.70
61255;DHT22;47128;47.530;8.584;2023-04-03T10:37:23;8.00;88.20
61255;DHT22;47128;47.530;8.584;2023-04-03T10:42:23;7.50;88.90
61255;DHT22;47128;47.530;8.584;2023-04-03T10:53:31;7.20;89.70
61255;DHT22;47128;47.530;8.584;2023-04-03T11:04:47;7.30;90.20
61255;DHT22;47128;47.530;8.584;2023-04-03T11:10:40;7.60;90.10
61255;DHT22;47128;47.530;8.584;2023-04-03T11:16:19;7.50;90.10
61255;DHT22;47128;47.530;8.584;2023-04-03T11:18:52;7.60;90.10
61255;DHT22;47128;47.530;8.584;2023-04-03T11:27:08;7.80;90.50
61255;DHT22;47128;47.530;8.584;2023-04-03T11:35:06;8.00;89.00
61255;DHT22;47128;47.530;8.584;2023-04-03T11:40:40;7.70;89.80
61255;DHT22;47128;47.530;8.584;2023-04-03T12:01:42;7.50;89.60
61255;DHT22;47128;47.530;8.584;2023-04-03T12:04:09;7.40;89.70
61255;DHT22;47128;47.530;8.584;2023-04-03T12:14:48;7.90;90.00
61255;DHT22;47128;47.530;8.584;2023-04-03T12:17:23;8.00;90.10
61255;DHT22;47128;47.530;8.584;2023-04-03T12:19:49;8.10;89.30
61255;DHT22;47128;47.530;8.584;2023-04-03T12:22:17;8.20;89.10
61255;DHT22;47128;47.530;8.584;2023-04-03T12:24:48;8.20;88.90
61255;DHT22;47128;47.530;8.584;2023-04-03T12:51:43;8.40;88.00
61255;DHT22;47128;47.530;8.584;2023-04-03T12:54:13;8.30;88.00
61255;DHT22;47128;47.530;8.584;2023-04-03T12:56:40;8.10;88.90
61255;DHT22;47128;47.530;8.584;2023-04-03T12:59:23;8.00;89.50
61255;DHT22;47128;47.530;8.584;2023-04-03T13:01:59;8.00;89.90
61255;DHT22;47128;47.530;8.584;2023-04-03T13:04:37;7.90;89.80
61255;DHT22;47128;47.530;8.584;2023-04-03T13:13:09;7.80;89.60
61255;DHT22;47128;47.530;8.584;2023-04-03T13:18:38;7.70;90.10
61255;DHT22;47128;47.530;8.584;2023-04-03T13:24:06;7.80;89.10
61255;DHT22;47128;47.530;8.584;2023-04-03T13:26:35;7.90;88.50
61255;DHT22;47128;47.530;8.584;2023-04-03T13:32:18;8.00;88.70
61255;DHT22;47128;47.530;8.584;2023-04-03T13:34:44;8.10;86.90
61255;DHT22;47128;47.530;8.584;2023-04-03T13:42:32;8.20;86.30
61255;DHT22;47128;47.530;8.584;2023-04-03T13:47:44;8.30;85.80
61255;DHT22;47128;47.530;8.584;2023-04-03T13:50:18;8.30;85.40
61255;DHT22;47128;47.530;8.584;2023-04-03T13:53:30;8.40;86.20
61255;DHT22;47128;47.530;8.584;2023-04-03T13:55:32;8.60;86.60
61255;DHT22;47128;47.530;8.584;2023-04-03T13:57:59;8.40;86.10
61255;DHT22;47128;47.530;8.584;2023-04-03T14:02:51;8.40;86.40
61255;DHT22;47128;47.530;8.584;2023-04-03T14:05:19;8.40;86.10
61255;DHT22;47128;47.530;8.584;2023-04-03T14:07:46;8.40;84.60
61255;DHT22;47128;47.530;8.584;2023-04-03T14:16:11;8.30;84.60
61255;DHT22;47128;47.530;8.584;2023-04-03T14:18:37;8.20;83.80
61255;DHT22;47128;47.530;8.584;2023-04-03T14:21:04;8.20;84.50
61255;DHT22;47128;47.530;8.584;2023-04-03T14:23:30;8.40;84.00
61255;DHT22;47128;47.530;8.584;2023-04-03T14:25:58;8.60;83.60
61255;DHT22;47128;47.530;8.584;2023-04-03T14:28:25;8.60;83.80
61255;DHT22;47128;47.530;8.584;2023-04-03T14:34:06;8.50;82.00
61255;DHT22;47128;47.530;8.584;2023-04-03T14:36:32;8.60;82.10
61255;DHT22;47128;47.530;8.584;2023-04-03T14:38:58;8.40;82.70
61255;DHT22;47128;47.530;8.584;2023-04-03T14:44:41;8.60;82.50
61255;DHT22;47128;47.530;8.584;2023-04-03T14:47:18;8.70;82.10
61255;DHT22;47128;47.530;8.584;2023-04-03T14:52:49;8.50;82.20
61255;DHT22;47128;47.530;8.584;2023-04-03T14:58:17;8.40;82.50
61255;DHT22;47128;47.530;8.584;2023-04-03T15:03:46;8.30;83.10
61255;DHT22;47128;47.530;8.584;2023-04-03T15:09:18;8.20;83.10
61255;DHT22;47128;47.530;8.584;2023-04-03T15:14:47;8.20;82.40
61255;DHT22;47128;47.530;8.584;2023-04-03T15:20:17;8.10;82.40
61255;DHT22;47128;47.530;8.584;2023-04-03T15:22:54;8.00;81.60
61255;DHT22;47128;47.530;8.584;2023-04-03T15:25:26;8.10;82.10
61255;DHT22;47128;47.530;8.584;2023-04-03T15:30:54;8.10;82.90
61255;DHT22;47128;47.530;8.584;2023-04-03T15:33:20;8.00;81.90
61255;DHT22;47128;47.530;8.584;2023-04-03T15:35:46;7.90;82.30
61255;DHT22;47128;47.530;8.584;2023-04-03T15:38:11;7.90;82.90
61255;DHT22;47128;47.530;8.584;2023-04-03T15:40:37;8.00;82.80
61255;DHT22;47128;47.530;8.584;2023-04-03T15:49:09;8.00;80.90
61255;DHT22;47128;47.530;8.584;2023-04-03T15:54:24;7.90;81.10
61255;DHT22;47128;47.530;8.584;2023-04-03T15:56:50;7.90;81.80
61255;DHT22;47128;47.530;8.584;2023-04-03T15:59:16;7.80;81.40
61255;DHT22;47128;47.530;8.584;2023-04-03T16:01:41;7.80;81.50
61255;DHT22;47128;47.530;8.584;2023-04-03T16:04:07;7.60;81.60
61255;DHT22;47128;47.530;8.584;2023-04-03T16:06:34;7.70;81.70
61255;DHT22;47128;47.530;8.584;2023-04-03T16:09:00;7.70;82.20
61255;DHT22;47128;47.530;8.584;2023-04-03T16:11:26;7.60;81.40
61255;DHT22;47128;47.530;8.584;2023-04-03T16:13:52;7.60;82.20
61255;DHT22;47128;47.530;8.584;2023-04-03T16:16:18;7.60;81.90
61255;DHT22;47128;47.530;8.584;2023-04-03T16:18:43;7.50;82.00
61255;DHT22;47128;47.530;8.584;2023-04-03T16:21:09;7.50;82.40
61255;DHT22;47128;47.530;8.584;2023-04-03T16:23:35;7.50;81.90
61255;DHT22;47128;47.530;8.584;2023-04-03T16:26:01;7.60;81.80
61255;DHT22;47128;47.530;8.584;2023-04-03T16:28:26;7.70;81.60
61255;DHT22;47128;47.530;8.584;2023-04-03T16:30:52;7.70;81.50
61255;DHT22;47128;47.530;8.584;2023-04-03T16:39:24;7.80;82.20
61255;DHT22;47128;47.530;8.584;2023-04-03T16:41:49;7.80;82.10
61255;DHT22;47128;47.530;8.584;2023-04-03T16:44:15;7.80;82.60
61255;DHT22;47128;47.530;8.584;2023-04-03T16:46:42;7.80;82.30
61255;DHT22;47128;47.530;8.584;2023-04-03T16:49:08;7.70;81.70
61255;DHT22;47128;47.530;8.584;2023-04-03T16:51:33;7.70;82.00
61255;DHT22;47128;47.530;8.584;2023-04-03T16:53:59;7.70;82.10
61255;DHT22;47128;47.530;8.584;2023-04-03T16:56:25;7.60;82.20
61255;DHT22;47128;47.530;8.584;2023-04-03T16:58:52;7.50;82.40
61255;DHT22;47128;47.530;8.584;2023-04-03T17:01:19;7.40;82.90
61255;DHT22;47128;47.530;8.584;2023-04-03T17:03:45;7.40;83.70
61255;DHT22;47128;47.530;8.584;2023-04-03T17:06:11;7.50;84.10
61255;DHT22;47128;47.530;8.584;2023-04-03T17:08:41;7.50;84.20
61255;DHT22;47128;47.530;8.584;2023-04-03T17:11:07;7.40;83.70
61255;DHT22;47128;47.530;8.584;2023-04-03T17:13:32;7.30;83.40
61255;DHT22;47128;47.530;8.584;2023-04-03T17:15:59;7.40;84.00
61255;DHT22;47128;47.530;8.584;2023-04-03T17:21:28;7.20;83.90
61255;DHT22;47128;47.530;8.584;2023-04-03T17:23:54;7.30;84.10
61255;DHT22;47128;47.530;8.584;2023-04-03T17:26:23;7.30;84.10
61255;DHT22;47128;47.530;8.584;2023-04-03T17:28:48;7.30;84.10
61255;DHT22;47128;47.530;8.584;2023-04-03T17:31:14;7.30;84.20
61255;DHT22;47128;47.530;8.584;2023-04-03T17:33:39;7.20;84.90
61255;DHT22;47128;47.530;8.584;2023-04-03T17:36:05;7.20;85.00
61255;DHT22;47128;47.530;8.584;2023-04-03T17:38:32;7.20;84.30
61255;DHT22;47128;47.530;8.584;2023-04-03T17:40:58;7.10;84.30
61255;DHT22;47128;47.530;8.584;2023-04-03T17:43:24;7.10;85.00
61255;DHT22;47128;47.530;8.584;2023-04-03T17:45:50;7.10;84.50
61255;DHT22;47128;47.530;8.584;2023-04-03T17:48:16;7.10;84.30
61255;DHT22;47128;47.530;8.584;2023-04-03T17:50:41;7.10;85.30
61255;DHT22;47128;47.530;8.584;2023-04-03T17:53:07;7.10;85.80
61255;DHT22;47128;47.530;8.584;2023-04-03T17:55:32;7.10;85.40
61255;DHT22;47128;47.530;8.584;2023-04-03T17:57:58;7.10;84.60
61255;DHT22;47128;47.530;8.584;2023-04-03T18:00:24;7.10;85.10
61255;DHT22;47128;47.530;8.584;2023-04-03T18:02:52;7.10;85.50
61255;DHT22;47128;47.530;8.584;2023-04-03T18:05:18;7.00;87.00
61255;DHT22;47128;47.530;8.584;2023-04-03T18:07:44;7.00;85.90
61255;DHT22;47128;47.530;8.584;2023-04-03T18:10:09;7.00;85.90
61255;DHT22;47128;47.530;8.584;2023-04-03T18:15:03;6.90;84.60
61255;DHT22;47128;47.530;8.584;2023-04-03T18:17:28;6.90;85.00
61255;DHT22;47128;47.530;8.584;2023-04-03T18:19:54;6.90;86.00
61255;DHT22;47128;47.530;8.584;2023-04-03T18:22:21;6.90;85.00
61255;DHT22;47128;47.530;8.584;2023-04-03T18:24:48;6.90;85.20
61255;DHT22;47128;47.530;8.584;2023-04-03T18:27:14;6.80;85.00
61255;DHT22;47128;47.530;8.584;2023-04-03T18:29:41;6.80;85.10
61255;DHT22;47128;47.530;8.584;2023-04-03T18:32:08;6.80;84.60
61255;DHT22;47128;47.530;8.584;2023-04-03T18:34:34;6.70;84.90
61255;DHT22;47128;47.530;8.584;2023-04-03T18:37:00;6.70;84.90
61255;DHT22;47128;47.530;8.584;2023-04-03T18:39:27;6.70;85.20
61255;DHT22;47128;47.530;8.584;2023-04-03T18:41:53;6.70;85.10
61255;DHT22;47128;47.530;8.584;2023-04-03T18:44:20;6.70;85.40
61255;DHT22;47128;47.530;8.584;2023-04-03T18:46:46;6.70;85.50
61255;DHT22;47128;47.530;8.584;2023-04-03T18:49:12;6.70;85.60
61255;DHT22;47128;47.530;8.584;2023-04-03T18:51:38;6.60;85.40
61255;DHT22;47128;47.530;8.584;2023-04-03T18:54:04;6.60;85.70
61255;DHT22;47128;47.530;8.584;2023-04-03T18:56:30;6.60;85.80
61255;DHT22;47128;47.530;8.584;2023-04-03T18:58:56;6.60;85.80
61255;DHT22;47128;47.530;8.584;2023-04-03T19:01:21;6.60;85.70
61255;DHT22;47128;47.530;8.584;2023-04-03T19:03:47;6.50;84.90
61255;DHT22;47128;47.530;8.584;2023-04-03T19:06:12;6.50;85.20
61255;DHT22;47128;47.530;8.584;2023-04-03T19:08:38;6.50;85.50
61255;DHT22;47128;47.530;8.584;2023-04-03T19:11:04;6.60;85.80
61255;DHT22;47128;47.530;8.584;2023-04-03T19:13:29;6.60;85.80
61255;DHT22;47128;47.530;8.584;2023-04-03T19:15:56;6.60;85.50
61255;DHT22;47128;47.530;8.584;2023-04-03T19:18:24;6.60;85.30
61255;DHT22;47128;47.530;8.584;2023-04-03T19:20:50;6.60;85.00
61255;DHT22;47128;47.530;8.584;2023-04-03T19:23:15;6.50;84.70
61255;DHT22;47128;47.530;8.584;2023-04-03T19:25:41;6.50;84.40
61255;DHT22;47128;47.530;8.584;2023-04-03T19:28:07;6.40;84.30
61255;DHT22;47128;47.530;8.584;2023-04-03T19:30:32;6.40;84.00
61255;DHT22;47128;47.530;8.584;2023-04-03T19:32:58;6.40;84.00
61255;DHT22;47128;47.530;8.584;2023-04-03T19:35:24;6.40;83.50
61255;DHT22;47128;47.530;8.584;2023-04-03T19:37:49;6.40;83.70
61255;DHT22;47128;47.530;8.584;2023-04-03T19:40:17;6.40;83.70
61255;DHT22;47128;47.530;8.584;2023-04-03T19:42:42;6.30;83.70
61255;DHT22;47128;47.530;8.584;2023-04-03T19:45:09;6.30;83.30
61255;DHT22;47128;47.530;8.584;2023-04-03T19:47:35;6.30;83.70
61255;DHT22;47128;47.530;8.584;2023-04-03T19:50:01;6.30;83.10
61255;DHT22;47128;47.530;8.584;2023-04-03T19:52:27;6.20;83.10
61255;DHT22;47128;47.530;8.584;2023-04-03T19:54:53;6.20;83.20
61255;DHT22;47128;47.530;8.584;2023-04-03T19:57:18;6.10;82.90
61255;DHT22;47128;47.530;8.584;2023-04-03T19:59:44;6.20;83.10
61255;DHT22;47128;47.530;8.584;2023-04-03T20:02:10;6.10;82.70
61255;DHT22;47128;47.530;8.584;2023-04-03T20:04:35;6.10;83.10
61255;DHT22;47128;47.530;8.584;2023-04-03T20:07:01;6.00;82.90
61255;DHT22;47128;47.530;8.584;2023-04-03T20:09:27;6.00;82.60
61255;DHT22;47128;47.530;8.584;2023-04-03T20:11:52;6.00;82.90
61255;DHT22;47128;47.530;8.584;2023-04-03T20:14:18;6.00;82.90
61255;DHT22;47128;47.530;8.584;2023-04-03T20:16:44;6.00;82.60
61255;DHT22;47128;47.530;8.584;2023-04-03T20:21:37;5.90;82.80
61255;DHT22;47128;47.530;8.584;2023-04-03T20:24:04;5.80;82.50
61255;DHT22;47128;47.530;8.584;2023-04-03T20:26:32;5.80;82.00
61255;DHT22;47128;47.530;8.584;2023-04-03T20:29:01;5.80;82.60
61255;DHT22;47128;47.530;8.584;2023-04-03T20:31:27;5.80;82.70
61255;DHT22;47128;47.530;8.584;2023-04-03T20:33:53;5.80;83.10
61255;DHT22;47128;47.530;8.584;2023-04-03T20:36:19;5.80;83.10
61255;DHT22;47128;47.530;8.584;2023-04-03T20:38:46;5.70;83.10